<?xml version="1.0" encoding="UTF-8" standalone="no" ?>
<gpx xmlns="http://www.topografix.com/GPX/1/1" creator="" version="1.1" xmlns:xsi="http://www.w3.org/2001/XMLSchema-instance" xsi:schemaLocation="http://www.topografix.com/GPX/1/1 http://www.topografix.com/GPX/1/1/gpx.xsd">
 <trk>
  <name>ACTIVE LOG065736</name>
  <trkseg>
   <trkpt lat="33.017939" lon="35.143817">
    <ele>70.382</ele>
    <time>2012-06-22T03:57:34Z</time>
   </trkpt>
   <trkpt lat="33.018095" lon="35.142864">
    <ele>63.800</ele>
    <time>2012-06-22T03:58:56Z</time>
   </trkpt>
   <trkpt lat="33.017397" lon="35.142681">
    <ele>62.563</ele>
    <time>2012-06-22T03:59:27Z</time>
   </trkpt>
   <trkpt lat="33.016572" lon="35.143023">
    <ele>62.656</ele>
    <time>2012-06-22T04:00:03Z</time>
   </trkpt>
   <trkpt lat="33.016400" lon="35.143917">
    <ele>62.241</ele>
    <time>2012-06-22T04:01:32Z</time>
   </trkpt>
   <trkpt lat="33.016398" lon="35.145019">
    <ele>63.702</ele>
    <time>2012-06-22T04:01:59Z</time>
   </trkpt>
   <trkpt lat="33.016357" lon="35.146133">
    <ele>66.502</ele>
    <time>2012-06-22T04:02:25Z</time>
   </trkpt>
   <trkpt lat="33.016274" lon="35.147204">
    <ele>69.679</ele>
    <time>2012-06-22T04:02:49Z</time>
   </trkpt>
   <trkpt lat="33.016174" lon="35.148292">
    <ele>71.458</ele>
    <time>2012-06-22T04:03:14Z</time>
   </trkpt>
   <trkpt lat="33.016075" lon="35.149364">
    <ele>73.926</ele>
    <time>2012-06-22T04:03:41Z</time>
   </trkpt>
   <trkpt lat="33.015983" lon="35.150455">
    <ele>77.593</ele>
    <time>2012-06-22T04:04:09Z</time>
   </trkpt>
   <trkpt lat="33.015889" lon="35.151523">
    <ele>78.416</ele>
    <time>2012-06-22T04:04:35Z</time>
   </trkpt>
   <trkpt lat="33.015814" lon="35.152601">
    <ele>78.699</ele>
    <time>2012-06-22T04:04:58Z</time>
   </trkpt>
   <trkpt lat="33.015754" lon="35.153667">
    <ele>80.165</ele>
    <time>2012-06-22T04:05:20Z</time>
   </trkpt>
   <trkpt lat="33.015673" lon="35.154746">
    <ele>80.408</ele>
    <time>2012-06-22T04:05:41Z</time>
   </trkpt>
   <trkpt lat="33.015286" lon="35.155520">
    <ele>82.448</ele>
    <time>2012-06-22T04:06:05Z</time>
   </trkpt>
   <trkpt lat="33.014531" lon="35.155014">
    <ele>83.580</ele>
    <time>2012-06-22T04:06:37Z</time>
   </trkpt>
   <trkpt lat="33.014713" lon="35.156095">
    <ele>88.637</ele>
    <time>2012-06-22T04:07:18Z</time>
   </trkpt>
   <trkpt lat="33.015010" lon="35.157137">
    <ele>92.478</ele>
    <time>2012-06-22T04:07:49Z</time>
   </trkpt>
   <trkpt lat="33.015142" lon="35.158224">
    <ele>98.129</ele>
    <time>2012-06-22T04:08:19Z</time>
   </trkpt>
   <trkpt lat="33.015164" lon="35.159280">
    <ele>100.598</ele>
    <time>2012-06-22T04:08:52Z</time>
   </trkpt>
   <trkpt lat="33.015194" lon="35.160368">
    <ele>106.041</ele>
    <time>2012-06-22T04:09:25Z</time>
   </trkpt>
   <trkpt lat="33.015105" lon="35.161058">
    <ele>108.600</ele>
    <time>2012-06-22T04:10:19Z</time>
   </trkpt>
   <trkpt lat="33.015478" lon="35.161786">
    <ele>111.978</ele>
    <time>2012-06-22T04:11:36Z</time>
   </trkpt>
   <trkpt lat="33.015064" lon="35.161392">
    <ele>108.626</ele>
    <time>2012-06-22T04:12:15Z</time>
   </trkpt>
   <trkpt lat="33.014610" lon="35.161947">
    <ele>102.987</ele>
    <time>2012-06-22T04:14:16Z</time>
   </trkpt>
   <trkpt lat="33.014746" lon="35.162960">
    <ele>109.645</ele>
    <time>2012-06-22T04:16:04Z</time>
   </trkpt>
   <trkpt lat="33.014921" lon="35.164012">
    <ele>112.838</ele>
    <time>2012-06-22T04:16:38Z</time>
   </trkpt>
   <trkpt lat="33.015179" lon="35.165066">
    <ele>111.547</ele>
    <time>2012-06-22T04:17:04Z</time>
   </trkpt>
   <trkpt lat="33.015219" lon="35.166144">
    <ele>113.138</ele>
    <time>2012-06-22T04:17:33Z</time>
   </trkpt>
   <trkpt lat="33.015089" lon="35.167210">
    <ele>123.021</ele>
    <time>2012-06-22T04:18:04Z</time>
   </trkpt>
   <trkpt lat="33.014675" lon="35.168104">
    <ele>119.213</ele>
    <time>2012-06-22T04:18:52Z</time>
   </trkpt>
   <trkpt lat="33.014963" lon="35.167713">
    <ele>120.099</ele>
    <time>2012-06-22T04:20:25Z</time>
   </trkpt>
   <trkpt lat="33.014708" lon="35.168034">
    <ele>118.078</ele>
    <time>2012-06-22T04:21:01Z</time>
   </trkpt>
   <trkpt lat="33.014393" lon="35.169040">
    <ele>122.861</ele>
    <time>2012-06-22T04:21:31Z</time>
   </trkpt>
   <trkpt lat="33.014431" lon="35.170120">
    <ele>128.231</ele>
    <time>2012-06-22T04:22:06Z</time>
   </trkpt>
   <trkpt lat="33.014449" lon="35.171209">
    <ele>129.223</ele>
    <time>2012-06-22T04:22:37Z</time>
   </trkpt>
   <trkpt lat="33.014151" lon="35.172214">
    <ele>129.614</ele>
    <time>2012-06-22T04:23:07Z</time>
   </trkpt>
   <trkpt lat="33.013917" lon="35.173247">
    <ele>133.543</ele>
    <time>2012-06-22T04:23:36Z</time>
   </trkpt>
   <trkpt lat="33.013555" lon="35.173864">
    <ele>136.648</ele>
    <time>2012-06-22T04:26:28Z</time>
   </trkpt>
   <trkpt lat="33.013441" lon="35.174505">
    <ele>139.882</ele>
    <time>2012-06-22T04:28:18Z</time>
   </trkpt>
   <trkpt lat="33.013839" lon="35.174460">
    <ele>139.407</ele>
    <time>2012-06-22T04:29:36Z</time>
   </trkpt>
   <trkpt lat="33.013936" lon="35.175527">
    <ele>148.412</ele>
    <time>2012-06-22T04:30:12Z</time>
   </trkpt>
   <trkpt lat="33.013505" lon="35.176313">
    <ele>147.468</ele>
    <time>2012-06-22T04:30:46Z</time>
   </trkpt>
   <trkpt lat="33.013244" lon="35.177335">
    <ele>151.245</ele>
    <time>2012-06-22T04:31:30Z</time>
   </trkpt>
   <trkpt lat="33.013161" lon="35.178377">
    <ele>157.373</ele>
    <time>2012-06-22T04:32:15Z</time>
   </trkpt>
   <trkpt lat="33.013536" lon="35.179335">
    <ele>160.756</ele>
    <time>2012-06-22T04:32:52Z</time>
   </trkpt>
   <trkpt lat="33.014401" lon="35.179705">
    <ele>162.767</ele>
    <time>2012-06-22T04:33:25Z</time>
   </trkpt>
   <trkpt lat="33.015123" lon="35.180306">
    <ele>162.806</ele>
    <time>2012-06-22T04:33:57Z</time>
   </trkpt>
   <trkpt lat="33.014918" lon="35.181231">
    <ele>167.590</ele>
    <time>2012-06-22T04:35:25Z</time>
   </trkpt>
   <trkpt lat="33.014553" lon="35.182207">
    <ele>169.867</ele>
    <time>2012-06-22T04:35:51Z</time>
   </trkpt>
   <trkpt lat="33.014099" lon="35.183067">
    <ele>170.376</ele>
    <time>2012-06-22T04:36:24Z</time>
   </trkpt>
   <trkpt lat="33.013648" lon="35.183881">
    <ele>174.406</ele>
    <time>2012-06-22T04:37:12Z</time>
   </trkpt>
   <trkpt lat="33.012973" lon="35.184410">
    <ele>175.560</ele>
    <time>2012-06-22T04:38:30Z</time>
   </trkpt>
   <trkpt lat="33.013280" lon="35.185404">
    <ele>180.756</ele>
    <time>2012-06-22T04:39:10Z</time>
   </trkpt>
   <trkpt lat="33.013196" lon="35.186485">
    <ele>185.075</ele>
    <time>2012-06-22T04:39:44Z</time>
   </trkpt>
   <trkpt lat="33.013282" lon="35.187534">
    <ele>189.623</ele>
    <time>2012-06-22T04:40:37Z</time>
   </trkpt>
   <trkpt lat="33.013321" lon="35.188596">
    <ele>192.502</ele>
    <time>2012-06-22T04:41:25Z</time>
   </trkpt>
   <trkpt lat="33.013612" lon="35.189646">
    <ele>195.248</ele>
    <time>2012-06-22T04:41:48Z</time>
   </trkpt>
   <trkpt lat="33.014018" lon="35.190644">
    <ele>195.761</ele>
    <time>2012-06-22T04:42:10Z</time>
   </trkpt>
   <trkpt lat="33.014152" lon="35.191723">
    <ele>196.332</ele>
    <time>2012-06-22T04:42:35Z</time>
   </trkpt>
   <trkpt lat="33.014310" lon="35.192776">
    <ele>197.397</ele>
    <time>2012-06-22T04:43:13Z</time>
   </trkpt>
   <trkpt lat="33.014421" lon="35.193852">
    <ele>198.673</ele>
    <time>2012-06-22T04:43:37Z</time>
   </trkpt>
   <trkpt lat="33.014352" lon="35.194928">
    <ele>199.165</ele>
    <time>2012-06-22T04:43:54Z</time>
   </trkpt>
   <trkpt lat="33.014286" lon="35.196001">
    <ele>201.953</ele>
    <time>2012-06-22T04:44:14Z</time>
   </trkpt>
   <trkpt lat="33.014776" lon="35.196837">
    <ele>206.868</ele>
    <time>2012-06-22T04:45:12Z</time>
   </trkpt>
   <trkpt lat="33.015250" lon="35.197734">
    <ele>209.527</ele>
    <time>2012-06-22T04:45:52Z</time>
   </trkpt>
   <trkpt lat="33.015387" lon="35.198786">
    <ele>208.455</ele>
    <time>2012-06-22T04:48:18Z</time>
   </trkpt>
   <trkpt lat="33.015528" lon="35.199840">
    <ele>209.437</ele>
    <time>2012-06-22T04:48:53Z</time>
   </trkpt>
   <trkpt lat="33.015561" lon="35.200895">
    <ele>212.804</ele>
    <time>2012-06-22T04:49:34Z</time>
   </trkpt>
   <trkpt lat="33.015870" lon="35.201914">
    <ele>213.586</ele>
    <time>2012-06-22T04:50:02Z</time>
   </trkpt>
   <trkpt lat="33.016019" lon="35.202947">
    <ele>215.877</ele>
    <time>2012-06-22T04:50:29Z</time>
   </trkpt>
   <trkpt lat="33.015924" lon="35.204004">
    <ele>217.979</ele>
    <time>2012-06-22T04:51:02Z</time>
   </trkpt>
   <trkpt lat="33.016150" lon="35.204756">
    <ele>221.146</ele>
    <time>2012-06-22T05:02:19Z</time>
   </trkpt>
   <trkpt lat="33.016333" lon="35.205813">
    <ele>223.115</ele>
    <time>2012-06-22T05:02:54Z</time>
   </trkpt>
   <trkpt lat="33.016761" lon="35.206782">
    <ele>225.246</ele>
    <time>2012-06-22T05:03:27Z</time>
   </trkpt>
   <trkpt lat="33.017256" lon="35.207679">
    <ele>226.649</ele>
    <time>2012-06-22T05:04:00Z</time>
   </trkpt>
   <trkpt lat="33.017411" lon="35.208750">
    <ele>230.179</ele>
    <time>2012-06-22T05:04:38Z</time>
   </trkpt>
   <trkpt lat="33.017878" lon="35.209709">
    <ele>232.890</ele>
    <time>2012-06-22T05:05:12Z</time>
   </trkpt>
   <trkpt lat="33.018078" lon="35.210775">
    <ele>234.984</ele>
    <time>2012-06-22T05:05:40Z</time>
   </trkpt>
   <trkpt lat="33.017869" lon="35.211834">
    <ele>238.448</ele>
    <time>2012-06-22T05:06:07Z</time>
   </trkpt>
   <trkpt lat="33.018034" lon="35.212930">
    <ele>240.011</ele>
    <time>2012-06-22T05:06:32Z</time>
   </trkpt>
   <trkpt lat="33.018314" lon="35.213966">
    <ele>242.387</ele>
    <time>2012-06-22T05:06:59Z</time>
   </trkpt>
   <trkpt lat="33.018384" lon="35.215017">
    <ele>244.901</ele>
    <time>2012-06-22T05:07:33Z</time>
   </trkpt>
   <trkpt lat="33.018179" lon="35.216062">
    <ele>250.942</ele>
    <time>2012-06-22T05:08:27Z</time>
   </trkpt>
   <trkpt lat="33.018074" lon="35.217131">
    <ele>253.664</ele>
    <time>2012-06-22T05:09:05Z</time>
   </trkpt>
   <trkpt lat="33.018345" lon="35.218170">
    <ele>253.425</ele>
    <time>2012-06-22T05:09:56Z</time>
   </trkpt>
   <trkpt lat="33.018768" lon="35.219133">
    <ele>259.122</ele>
    <time>2012-06-22T05:10:32Z</time>
   </trkpt>
   <trkpt lat="33.019356" lon="35.219970">
    <ele>257.731</ele>
    <time>2012-06-22T05:11:02Z</time>
   </trkpt>
   <trkpt lat="33.019264" lon="35.220893">
    <ele>261.356</ele>
    <time>2012-06-22T05:13:38Z</time>
   </trkpt>
   <trkpt lat="33.019045" lon="35.221858">
    <ele>264.768</ele>
    <time>2012-06-22T05:15:30Z</time>
   </trkpt>
   <trkpt lat="33.019249" lon="35.222904">
    <ele>267.274</ele>
    <time>2012-06-22T05:17:59Z</time>
   </trkpt>
   <trkpt lat="33.019667" lon="35.223935">
    <ele>269.501</ele>
    <time>2012-06-22T05:19:25Z</time>
   </trkpt>
   <trkpt lat="33.020026" lon="35.224920">
    <ele>271.472</ele>
    <time>2012-06-22T05:20:27Z</time>
   </trkpt>
   <trkpt lat="33.020365" lon="35.225852">
    <ele>274.231</ele>
    <time>2012-06-22T05:22:31Z</time>
   </trkpt>
   <trkpt lat="33.019983" lon="35.226709">
    <ele>278.730</ele>
    <time>2012-06-22T05:27:11Z</time>
   </trkpt>
   <trkpt lat="33.019420" lon="35.227539">
    <ele>281.867</ele>
    <time>2012-06-22T05:28:02Z</time>
   </trkpt>
   <trkpt lat="33.019207" lon="35.228606">
    <ele>285.453</ele>
    <time>2012-06-22T05:29:09Z</time>
   </trkpt>
   <trkpt lat="33.019102" lon="35.229665">
    <ele>291.997</ele>
    <time>2012-06-22T05:31:04Z</time>
   </trkpt>
   <trkpt lat="33.018484" lon="35.230611">
    <ele>301.859</ele>
    <time>2012-06-22T05:34:44Z</time>
   </trkpt>
   <trkpt lat="33.017827" lon="35.231421">
    <ele>315.663</ele>
    <time>2012-06-22T05:35:53Z</time>
   </trkpt>
   <trkpt lat="33.017254" lon="35.232377">
    <ele>327.088</ele>
    <time>2012-06-22T05:37:13Z</time>
   </trkpt>
   <trkpt lat="33.016600" lon="35.233206">
    <ele>339.525</ele>
    <time>2012-06-22T05:41:12Z</time>
   </trkpt>
   <trkpt lat="33.016065" lon="35.234306">
    <ele>347.513</ele>
    <time>2012-06-22T05:43:32Z</time>
   </trkpt>
   <trkpt lat="33.015548" lon="35.235284">
    <ele>364.723</ele>
    <time>2012-06-22T05:44:58Z</time>
   </trkpt>
   <trkpt lat="33.015360" lon="35.236420">
    <ele>368.449</ele>
    <time>2012-06-22T05:45:56Z</time>
   </trkpt>
   <trkpt lat="33.015291" lon="35.236666">
    <ele>371.205</ele>
    <time>2012-06-22T05:48:35Z</time>
   </trkpt>
  <trkpt lat="33.015185" lon="35.238179">
    <ele>395.138</ele>
    <time>2012-06-22T06:07:40Z</time>
   </trkpt>
   <trkpt lat="33.014924" lon="35.239200">
    <ele>399.297</ele>
    <time>2012-06-22T06:08:39Z</time>
   </trkpt>
   <trkpt lat="33.014308" lon="35.239555">
    <ele>401.379</ele>
    <time>2012-06-22T06:09:30Z</time>
   </trkpt>
   <trkpt lat="33.014123" lon="35.240457">
    <ele>404.709</ele>
    <time>2012-06-22T06:10:25Z</time>
   </trkpt>
   <trkpt lat="33.014235" lon="35.241540">
    <ele>405.962</ele>
    <time>2012-06-22T06:11:38Z</time>
   </trkpt>
   <trkpt lat="33.014523" lon="35.242481">
    <ele>406.916</ele>
    <time>2012-06-22T06:12:14Z</time>
   </trkpt>
   <trkpt lat="33.014880" lon="35.243221">
    <ele>412.554</ele>
    <time>2012-06-22T06:14:27Z</time>
   </trkpt>
   <trkpt lat="33.014102" lon="35.242935">
    <ele>413.246</ele>
    <time>2012-06-22T06:16:55Z</time>
   </trkpt>
   <trkpt lat="33.013978" lon="35.244040">
    <ele>413.993</ele>
    <time>2012-06-22T06:17:54Z</time>
   </trkpt>
   <trkpt lat="33.013659" lon="35.244922">
    <ele>419.640</ele>
    <time>2012-06-22T06:18:37Z</time>
   </trkpt>
   <trkpt lat="33.014132" lon="35.244610">
    <ele>415.435</ele>
    <time>2012-06-22T06:19:28Z</time>
   </trkpt>
   <trkpt lat="33.014904" lon="35.244753">
    <ele>419.915</ele>
    <time>2012-06-22T06:20:08Z</time>
   </trkpt>
   <trkpt lat="33.015628" lon="35.245427">
    <ele>428.639</ele>
    <time>2012-06-22T06:20:54Z</time>
   </trkpt>
   <trkpt lat="33.016357" lon="35.246095">
    <ele>434.488</ele>
    <time>2012-06-22T06:21:31Z</time>
   </trkpt>
   <trkpt lat="33.016623" lon="35.247053">
    <ele>434.556</ele>
    <time>2012-06-22T06:22:08Z</time>
   </trkpt>
   <trkpt lat="33.017135" lon="35.247091">
    <ele>435.062</ele>
    <time>2012-06-22T06:22:40Z</time>
   </trkpt>
   <trkpt lat="33.017644" lon="35.246809">
    <ele>436.823</ele>
    <time>2012-06-22T06:23:34Z</time>
   </trkpt>
   <trkpt lat="33.018527" lon="35.247058">
    <ele>435.485</ele>
    <time>2012-06-22T06:23:54Z</time>
   </trkpt>
   <trkpt lat="33.019335" lon="35.247653">
    <ele>435.949</ele>
    <time>2012-06-22T06:24:13Z</time>
   </trkpt>
   <trkpt lat="33.019960" lon="35.248515">
    <ele>436.581</ele>
    <time>2012-06-22T06:24:28Z</time>
   </trkpt>
   <trkpt lat="33.020170" lon="35.249580">
    <ele>436.754</ele>
    <time>2012-06-22T06:24:41Z</time>
   </trkpt>
   <trkpt lat="33.019973" lon="35.250658">
    <ele>439.152</ele>
    <time>2012-06-22T06:24:57Z</time>
   </trkpt>
   <trkpt lat="33.019845" lon="35.251768">
    <ele>438.769</ele>
    <time>2012-06-22T06:25:18Z</time>
   </trkpt>
   <trkpt lat="33.019641" lon="35.252827">
    <ele>438.661</ele>
    <time>2012-06-22T06:25:37Z</time>
   </trkpt>
   <trkpt lat="33.019789" lon="35.253906">
    <ele>441.858</ele>
    <time>2012-06-22T06:25:56Z</time>
   </trkpt>
   <trkpt lat="33.019556" lon="35.254953">
    <ele>444.068</ele>
    <time>2012-06-22T06:26:17Z</time>
   </trkpt>
   <trkpt lat="33.019214" lon="35.255976">
    <ele>446.337</ele>
    <time>2012-06-22T06:26:40Z</time>
   </trkpt>
   <trkpt lat="33.018883" lon="35.256990">
    <ele>450.236</ele>
    <time>2012-06-22T06:27:09Z</time>
   </trkpt>
   <trkpt lat="33.019136" lon="35.257751">
    <ele>446.067</ele>
    <time>2012-06-22T06:27:49Z</time>
   </trkpt>
   <trkpt lat="33.018978" lon="35.258846">
    <ele>446.915</ele>
    <time>2012-06-22T06:28:18Z</time>
   </trkpt>
   <trkpt lat="33.018691" lon="35.259877">
    <ele>448.063</ele>
    <time>2012-06-22T06:28:42Z</time>
   </trkpt>
   <trkpt lat="33.018092" lon="35.260679">
    <ele>450.914</ele>
    <time>2012-06-22T06:29:11Z</time>
   </trkpt>
   <trkpt lat="33.018173" lon="35.261569">
    <ele>452.886</ele>
    <time>2012-06-22T06:29:43Z</time>
   </trkpt>
   <trkpt lat="33.018519" lon="35.262521">
    <ele>452.879</ele>
    <time>2012-06-22T06:30:11Z</time>
   </trkpt>
   <trkpt lat="33.018645" lon="35.263617">
    <ele>453.058</ele>
    <time>2012-06-22T06:30:43Z</time>
   </trkpt>
   <trkpt lat="33.019138" lon="35.264378">
    <ele>454.571</ele>
    <time>2012-06-22T06:32:06Z</time>
   </trkpt>
   <trkpt lat="33.019502" lon="35.265124">
    <ele>455.134</ele>
    <time>2012-06-22T06:33:17Z</time>
   </trkpt>
   <trkpt lat="33.018958" lon="35.266049">
    <ele>457.387</ele>
    <time>2012-06-22T06:33:47Z</time>
   </trkpt>
   <trkpt lat="33.018494" lon="35.266988">
    <ele>458.885</ele>
    <time>2012-06-22T06:34:09Z</time>
   </trkpt>
   <trkpt lat="33.018129" lon="35.267983">
    <ele>460.236</ele>
    <time>2012-06-22T06:34:31Z</time>
   </trkpt>
   <trkpt lat="33.018248" lon="35.268871">
    <ele>461.609</ele>
    <time>2012-06-22T06:35:07Z</time>
   </trkpt>
   <trkpt lat="33.019135" lon="35.269222">
    <ele>460.734</ele>
    <time>2012-06-22T06:35:34Z</time>
   </trkpt>
   <trkpt lat="33.020047" lon="35.269415">
    <ele>460.754</ele>
    <time>2012-06-22T06:36:02Z</time>
   </trkpt>
   <trkpt lat="33.020934" lon="35.269487">
    <ele>460.937</ele>
    <time>2012-06-22T06:36:25Z</time>
   </trkpt>
   <trkpt lat="33.021813" lon="35.269791">
    <ele>462.504</ele>
    <time>2012-06-22T06:36:47Z</time>
   </trkpt>
   <trkpt lat="33.022590" lon="35.269565">
    <ele>462.318</ele>
    <time>2012-06-22T06:37:15Z</time>
   </trkpt>
   <trkpt lat="33.023469" lon="35.269370">
    <ele>470.502</ele>
    <time>2012-06-22T06:37:41Z</time>
   </trkpt>
   <trkpt lat="33.024367" lon="35.269200">
    <ele>479.496</ele>
    <time>2012-06-22T06:38:14Z</time>
   </trkpt>
   <trkpt lat="33.025167" lon="35.269013">
    <ele>479.482</ele>
    <time>2012-06-22T06:40:21Z</time>
   </trkpt>
   <trkpt lat="33.025252" lon="35.268972">
    <ele>481.009</ele>
    <time>2012-06-22T06:43:41Z</time>
   </trkpt>
   <trkpt lat="33.026181" lon="35.269094">
    <ele>472.721</ele>
    <time>2012-06-22T06:43:53Z</time>
   </trkpt>
   <trkpt lat="33.027124" lon="35.268946">
    <ele>461.070</ele>
    <time>2012-06-22T06:44:02Z</time>
   </trkpt>
   <trkpt lat="33.027923" lon="35.268356">
    <ele>450.386</ele>
    <time>2012-06-22T06:44:10Z</time>
   </trkpt>
   <trkpt lat="33.028747" lon="35.268085">
    <ele>441.787</ele>
    <time>2012-06-22T06:44:17Z</time>
   </trkpt>
   <trkpt lat="33.029665" lon="35.268410">
    <ele>432.236</ele>
    <time>2012-06-22T06:45:00Z</time>
   </trkpt>
   <trkpt lat="33.030510" lon="35.268327">
    <ele>428.679</ele>
    <time>2012-06-22T06:45:58Z</time>
   </trkpt>
   <trkpt lat="33.030404" lon="35.269231">
    <ele>416.000</ele>
    <time>2012-06-22T06:46:10Z</time>
   </trkpt>
   <trkpt lat="33.030002" lon="35.270016">
    <ele>405.659</ele>
    <time>2012-06-22T06:46:23Z</time>
   </trkpt>
   <trkpt lat="33.030641" lon="35.269481">
    <ele>392.392</ele>
    <time>2012-06-22T06:46:39Z</time>
   </trkpt>
   <trkpt lat="33.031314" lon="35.270070">
    <ele>381.071</ele>
    <time>2012-06-22T06:46:50Z</time>
   </trkpt>
   <trkpt lat="33.032061" lon="35.270610">
    <ele>377.362</ele>
    <time>2012-06-22T06:47:00Z</time>
   </trkpt>
   <trkpt lat="33.032110" lon="35.271723">
    <ele>369.788</ele>
    <time>2012-06-22T06:47:11Z</time>
   </trkpt>
   <trkpt lat="33.032401" lon="35.272640">
    <ele>361.611</ele>
    <time>2012-06-22T06:47:20Z</time>
   </trkpt>
   <trkpt lat="33.033353" lon="35.272751">
    <ele>361.324</ele>
    <time>2012-06-22T06:47:29Z</time>
   </trkpt>
   <trkpt lat="33.034103" lon="35.273348">
    <ele>355.629</ele>
    <time>2012-06-22T06:47:40Z</time>
   </trkpt>
   <trkpt lat="33.034662" lon="35.274223">
    <ele>352.370</ele>
    <time>2012-06-22T06:47:50Z</time>
   </trkpt>
   <trkpt lat="33.035425" lon="35.274474">
    <ele>342.828</ele>
    <time>2012-06-22T06:47:58Z</time>
   </trkpt>
   <trkpt lat="33.036302" lon="35.273738">
    <ele>328.795</ele>
    <time>2012-06-22T06:48:07Z</time>
   </trkpt>
   <trkpt lat="33.037039" lon="35.273154">
    <ele>321.375</ele>
    <time>2012-06-22T06:48:14Z</time>
   </trkpt>
   <trkpt lat="33.037701" lon="35.272321">
    <ele>319.380</ele>
    <time>2012-06-22T06:48:23Z</time>
   </trkpt>
   <trkpt lat="33.037921" lon="35.271280">
    <ele>318.759</ele>
    <time>2012-06-22T06:48:33Z</time>
   </trkpt>
   <trkpt lat="33.037995" lon="35.270197">
    <ele>315.690</ele>
    <time>2012-06-22T06:48:43Z</time>
   </trkpt>
   <trkpt lat="33.038488" lon="35.269031">
    <ele>312.859</ele>
    <time>2012-06-22T06:52:24Z</time>
   </trkpt>
   <trkpt lat="33.038813" lon="35.267723">
    <ele>315.446</ele>
    <time>2012-06-22T06:55:56Z</time>
   </trkpt>
   <trkpt lat="33.039354" lon="35.266848">
    <ele>313.450</ele>
    <time>2012-06-22T06:56:22Z</time>
   </trkpt>
   <trkpt lat="33.040207" lon="35.266348">
    <ele>305.609</ele>
    <time>2012-06-22T06:56:39Z</time>
   </trkpt>
   <trkpt lat="33.041129" lon="35.266293">
    <ele>302.652</ele>
    <time>2012-06-22T06:56:51Z</time>
   </trkpt>
   <trkpt lat="33.041939" lon="35.265766">
    <ele>298.424</ele>
    <time>2012-06-22T06:58:49Z</time>
   </trkpt>
   <trkpt lat="33.042542" lon="35.264894">
    <ele>300.034</ele>
    <time>2012-06-22T06:59:18Z</time>
   </trkpt>
   <trkpt lat="33.043023" lon="35.263940">
    <ele>299.341</ele>
    <time>2012-06-22T06:59:40Z</time>
   </trkpt>
   <trkpt lat="33.042929" lon="35.262823">
    <ele>296.519</ele>
    <time>2012-06-22T06:59:57Z</time>
   </trkpt>
   <trkpt lat="33.043321" lon="35.261869">
    <ele>289.650</ele>
    <time>2012-06-22T07:00:08Z</time>
   </trkpt>
   <trkpt lat="33.043814" lon="35.261103">
    <ele>286.919</ele>
    <time>2012-06-22T07:00:26Z</time>
   </trkpt>
   <trkpt lat="33.044054" lon="35.259972">
    <ele>287.295</ele>
    <time>2012-06-22T07:00:56Z</time>
   </trkpt>
   <trkpt lat="33.044216" lon="35.258820">
    <ele>285.123</ele>
    <time>2012-06-22T07:01:22Z</time>
   </trkpt>
   <trkpt lat="33.043836" lon="35.257786">
    <ele>281.648</ele>
    <time>2012-06-22T07:01:44Z</time>
   </trkpt>
   <trkpt lat="33.043675" lon="35.256663">
    <ele>281.334</ele>
    <time>2012-06-22T07:02:01Z</time>
   </trkpt>
   <trkpt lat="33.043822" lon="35.255551">
    <ele>277.357</ele>
    <time>2012-06-22T07:02:17Z</time>
   </trkpt>
   <trkpt lat="33.043655" lon="35.254560">
    <ele>272.360</ele>
    <time>2012-06-22T07:02:32Z</time>
   </trkpt>
   <trkpt lat="33.042845" lon="35.254152">
    <ele>274.421</ele>
    <time>2012-06-22T07:04:03Z</time>
   </trkpt>
   <trkpt lat="33.042504" lon="35.252977">
    <ele>269.495</ele>
    <time>2012-06-22T07:04:45Z</time>
   </trkpt>
   <trkpt lat="33.042176" lon="35.251753">
    <ele>268.548</ele>
    <time>2012-06-22T07:05:26Z</time>
   </trkpt>
   <trkpt lat="33.041816" lon="35.250512">
    <ele>265.714</ele>
    <time>2012-06-22T07:05:53Z</time>
   </trkpt>
   <trkpt lat="33.041528" lon="35.249554">
    <ele>262.345</ele>
    <time>2012-06-22T07:08:00Z</time>
   </trkpt>
   <trkpt lat="33.041737" lon="35.248467">
    <ele>257.964</ele>
    <time>2012-06-22T07:08:22Z</time>
   </trkpt>
   <trkpt lat="33.041921" lon="35.248197">
    <ele>260.659</ele>
    <time>2012-06-22T07:37:06Z</time>
   </trkpt>
   <trkpt lat="33.042554" lon="35.247344">
    <ele>267.560</ele>
    <time>2012-06-22T07:39:00Z</time>
   </trkpt>
   <trkpt lat="33.043164" lon="35.246518">
    <ele>276.729</ele>
    <time>2012-06-22T07:40:01Z</time>
   </trkpt>
   <trkpt lat="33.043675" lon="35.245620">
    <ele>285.156</ele>
    <time>2012-06-22T07:40:46Z</time>
   </trkpt>
   <trkpt lat="33.044095" lon="35.244910">
    <ele>275.260</ele>
    <time>2012-06-22T08:07:39Z</time>
   </trkpt>
   <trkpt lat="33.045029" lon="35.244922">
    <ele>264.260</ele>
    <time>2012-06-22T08:08:08Z</time>
   </trkpt>
   <trkpt lat="33.045989" lon="35.244898">
    <ele>258.726</ele>
    <time>2012-06-22T08:08:36Z</time>
   </trkpt>
   <trkpt lat="33.046881" lon="35.244642">
    <ele>253.101</ele>
    <time>2012-06-22T08:09:00Z</time>
   </trkpt>
   <trkpt lat="33.047599" lon="35.244072">
    <ele>245.982</ele>
    <time>2012-06-22T08:09:48Z</time>
   </trkpt>
   <trkpt lat="33.048374" lon="35.243391">
    <ele>233.837</ele>
    <time>2012-06-22T08:10:13Z</time>
   </trkpt>
   <trkpt lat="33.049173" lon="35.242692">
    <ele>224.531</ele>
    <time>2012-06-22T08:10:30Z</time>
   </trkpt>
   <trkpt lat="33.049484" lon="35.241647">
    <ele>220.008</ele>
    <time>2012-06-22T08:10:53Z</time>
   </trkpt>
   <trkpt lat="33.049307" lon="35.240458">
    <ele>214.909</ele>
    <time>2012-06-22T08:11:25Z</time>
   </trkpt>
   <trkpt lat="33.049615" lon="35.239395">
    <ele>210.554</ele>
    <time>2012-06-22T08:11:54Z</time>
   </trkpt>
   <trkpt lat="33.049803" lon="35.238239">
    <ele>209.324</ele>
    <time>2012-06-22T08:13:37Z</time>
   </trkpt>
   <trkpt lat="33.049726" lon="35.237183">
    <ele>205.376</ele>
    <time>2012-06-22T08:15:45Z</time>
   </trkpt>
   <trkpt lat="33.048984" lon="35.236369">
    <ele>204.702</ele>
    <time>2012-06-22T08:16:49Z</time>
   </trkpt>
   <trkpt lat="33.048977" lon="35.236298">
    <ele>204.408</ele>
    <time>2012-06-22T08:19:53Z</time>
   </trkpt>
   <trkpt lat="33.048897" lon="35.235163">
    <ele>203.788</ele>
    <time>2012-06-22T08:20:32Z</time>
   </trkpt>
   <trkpt lat="33.048442" lon="35.234136">
    <ele>195.412</ele>
    <time>2012-06-22T08:21:04Z</time>
   </trkpt>
   <trkpt lat="33.048049" lon="35.233118">
    <ele>194.818</ele>
    <time>2012-06-22T08:21:53Z</time>
   </trkpt>
   <trkpt lat="33.047921" lon="35.232053">
    <ele>193.944</ele>
    <time>2012-06-22T08:22:32Z</time>
   </trkpt>
   <trkpt lat="33.047639" lon="35.231019">
    <ele>190.708</ele>
    <time>2012-06-22T08:23:17Z</time>
   </trkpt>
   <trkpt lat="33.047409" lon="35.229991">
    <ele>188.585</ele>
    <time>2012-06-22T08:24:09Z</time>
   </trkpt>
   <trkpt lat="33.046999" lon="35.229040">
    <ele>190.131</ele>
    <time>2012-06-22T08:24:55Z</time>
   </trkpt>
   <trkpt lat="33.046248" lon="35.228405">
    <ele>185.666</ele>
    <time>2012-06-22T08:25:18Z</time>
   </trkpt>
   <trkpt lat="33.046030" lon="35.227324">
    <ele>179.507</ele>
    <time>2012-06-22T08:27:10Z</time>
   </trkpt>
   <trkpt lat="33.046462" lon="35.226370">
    <ele>178.705</ele>
    <time>2012-06-22T08:27:40Z</time>
   </trkpt>
   <trkpt lat="33.046861" lon="35.225395">
    <ele>179.744</ele>
    <time>2012-06-22T08:28:07Z</time>
   </trkpt>
   <trkpt lat="33.046701" lon="35.224393">
    <ele>180.866</ele>
    <time>2012-06-22T08:28:36Z</time>
   </trkpt>
   <trkpt lat="33.045939" lon="35.223793">
    <ele>179.139</ele>
    <time>2012-06-22T08:29:01Z</time>
   </trkpt>
   <trkpt lat="33.045000" lon="35.223453">
    <ele>172.628</ele>
    <time>2012-06-22T08:29:19Z</time>
   </trkpt>
   <trkpt lat="33.044294" lon="35.222620">
    <ele>172.427</ele>
    <time>2012-06-22T08:30:52Z</time>
   </trkpt>
   <trkpt lat="33.044096" lon="35.221512">
    <ele>167.229</ele>
    <time>2012-06-22T08:31:18Z</time>
   </trkpt>
   <trkpt lat="33.043607" lon="35.220492">
    <ele>164.998</ele>
    <time>2012-06-22T08:31:42Z</time>
   </trkpt>
   <trkpt lat="33.043485" lon="35.219572">
    <ele>163.791</ele>
    <time>2012-06-22T08:32:35Z</time>
   </trkpt>
   <trkpt lat="33.043061" lon="35.218610">
    <ele>163.132</ele>
    <time>2012-06-22T08:33:02Z</time>
   </trkpt>
   <trkpt lat="33.042572" lon="35.217623">
    <ele>161.405</ele>
    <time>2012-06-22T08:33:23Z</time>
   </trkpt>
   <trkpt lat="33.042116" lon="35.216615">
    <ele>160.665</ele>
    <time>2012-06-22T08:33:47Z</time>
   </trkpt>
   <trkpt lat="33.042187" lon="35.215544">
    <ele>159.720</ele>
    <time>2012-06-22T08:34:10Z</time>
   </trkpt>
   <trkpt lat="33.042166" lon="35.214533">
    <ele>157.710</ele>
    <time>2012-06-22T08:35:03Z</time>
   </trkpt>
   <trkpt lat="33.042134" lon="35.213418">
    <ele>156.368</ele>
    <time>2012-06-22T08:35:29Z</time>
   </trkpt>
   <trkpt lat="33.041801" lon="35.212382">
    <ele>155.395</ele>
    <time>2012-06-22T08:35:53Z</time>
   </trkpt>
   <trkpt lat="33.041611" lon="35.211329">
    <ele>151.094</ele>
    <time>2012-06-22T08:37:00Z</time>
   </trkpt>
   <trkpt lat="33.041613" lon="35.210253">
    <ele>149.528</ele>
    <time>2012-06-22T08:37:52Z</time>
   </trkpt>
   <trkpt lat="33.042009" lon="35.209261">
    <ele>146.838</ele>
    <time>2012-06-22T08:38:11Z</time>
   </trkpt>
   <trkpt lat="33.041954" lon="35.208145">
    <ele>146.022</ele>
    <time>2012-06-22T08:38:42Z</time>
   </trkpt>
   <trkpt lat="33.041873" lon="35.207042">
    <ele>143.949</ele>
    <time>2012-06-22T08:39:05Z</time>
   </trkpt>
   <trkpt lat="33.041324" lon="35.206205">
    <ele>143.826</ele>
    <time>2012-06-22T08:39:24Z</time>
   </trkpt>
   <trkpt lat="33.041089" lon="35.205161">
    <ele>143.551</ele>
    <time>2012-06-22T08:40:26Z</time>
   </trkpt>
   <trkpt lat="33.041568" lon="35.204139">
    <ele>136.459</ele>
    <time>2012-06-22T08:40:58Z</time>
   </trkpt>
   <trkpt lat="33.041966" lon="35.203153">
    <ele>137.614</ele>
    <time>2012-06-22T08:41:27Z</time>
   </trkpt>
   <trkpt lat="33.042385" lon="35.202141">
    <ele>136.284</ele>
    <time>2012-06-22T08:41:56Z</time>
   </trkpt>
   <trkpt lat="33.042705" lon="35.201109">
    <ele>132.554</ele>
    <time>2012-06-22T08:42:16Z</time>
   </trkpt>
   <trkpt lat="33.042894" lon="35.200000">
    <ele>128.587</ele>
    <time>2012-06-22T08:42:34Z</time>
   </trkpt>
   <trkpt lat="33.043174" lon="35.198972">
    <ele>128.842</ele>
    <time>2012-06-22T08:45:18Z</time>
   </trkpt>
   <trkpt lat="33.043318" lon="35.197892">
    <ele>127.336</ele>
    <time>2012-06-22T08:45:49Z</time>
   </trkpt>
   <trkpt lat="33.043595" lon="35.196828">
    <ele>124.006</ele>
    <time>2012-06-22T08:46:15Z</time>
   </trkpt>
   <trkpt lat="33.043765" lon="35.195744">
    <ele>123.744</ele>
    <time>2012-06-22T08:46:41Z</time>
   </trkpt>
   <trkpt lat="33.043750" lon="35.194643">
    <ele>124.832</ele>
    <time>2012-06-22T08:47:07Z</time>
   </trkpt>
   <trkpt lat="33.043247" lon="35.193742">
    <ele>122.481</ele>
    <time>2012-06-22T08:47:27Z</time>
   </trkpt>
   <trkpt lat="33.042820" lon="35.192763">
    <ele>119.889</ele>
    <time>2012-06-22T08:47:48Z</time>
   </trkpt>
   <trkpt lat="33.042570" lon="35.191718">
    <ele>118.940</ele>
    <time>2012-06-22T08:48:11Z</time>
   </trkpt>
   <trkpt lat="33.042759" lon="35.190655">
    <ele>114.082</ele>
    <time>2012-06-22T08:48:30Z</time>
   </trkpt>
   <trkpt lat="33.042708" lon="35.189707">
    <ele>112.773</ele>
    <time>2012-06-22T08:50:49Z</time>
   </trkpt>
   <trkpt lat="33.042455" lon="35.188717">
    <ele>112.374</ele>
    <time>2012-06-22T08:51:22Z</time>
   </trkpt>
   <trkpt lat="33.042132" lon="35.187691">
    <ele>109.799</ele>
    <time>2012-06-22T08:51:40Z</time>
   </trkpt>
   <trkpt lat="33.042360" lon="35.186594">
    <ele>110.247</ele>
    <time>2012-06-22T08:51:57Z</time>
   </trkpt>
   <trkpt lat="33.042933" lon="35.185702">
    <ele>104.891</ele>
    <time>2012-06-22T08:52:13Z</time>
   </trkpt>
   <trkpt lat="33.043008" lon="35.184639">
    <ele>104.045</ele>
    <time>2012-06-22T08:52:30Z</time>
   </trkpt>
   <trkpt lat="33.042652" lon="35.183617">
    <ele>102.266</ele>
    <time>2012-06-22T08:52:47Z</time>
   </trkpt>
   <trkpt lat="33.042514" lon="35.182585">
    <ele>102.367</ele>
    <time>2012-06-22T08:53:06Z</time>
   </trkpt>
   <trkpt lat="33.042234" lon="35.181558">
    <ele>100.018</ele>
    <time>2012-06-22T08:53:24Z</time>
   </trkpt>
   <trkpt lat="33.042507" lon="35.180483">
    <ele>99.194</ele>
    <time>2012-06-22T08:53:40Z</time>
   </trkpt>
   <trkpt lat="33.042808" lon="35.179465">
    <ele>98.682</ele>
    <time>2012-06-22T08:54:00Z</time>
   </trkpt>
   <trkpt lat="33.042974" lon="35.178379">
    <ele>98.607</ele>
    <time>2012-06-22T08:54:24Z</time>
   </trkpt>
   <trkpt lat="33.043048" lon="35.177278">
    <ele>95.907</ele>
    <time>2012-06-22T08:54:49Z</time>
   </trkpt>
   <trkpt lat="33.043062" lon="35.176167">
    <ele>94.224</ele>
    <time>2012-06-22T08:55:13Z</time>
   </trkpt>
   <trkpt lat="33.043068" lon="35.175079">
    <ele>94.024</ele>
    <time>2012-06-22T08:55:39Z</time>
   </trkpt>
   <trkpt lat="33.043177" lon="35.173991">
    <ele>91.562</ele>
    <time>2012-06-22T08:56:13Z</time>
   </trkpt>
   <trkpt lat="33.043351" lon="35.172887">
    <ele>90.842</ele>
    <time>2012-06-22T08:56:39Z</time>
   </trkpt>
   <trkpt lat="33.043001" lon="35.172214">
    <ele>87.768</ele>
    <time>2012-06-22T08:57:04Z</time>
   </trkpt>
   <trkpt lat="33.042231" lon="35.172143">
    <ele>92.807</ele>
    <time>2012-06-22T08:57:37Z</time>
   </trkpt>
   <trkpt lat="33.042004" lon="35.171074">
    <ele>91.115</ele>
    <time>2012-06-22T08:57:56Z</time>
   </trkpt>
   <trkpt lat="33.041983" lon="35.169969">
    <ele>87.154</ele>
    <time>2012-06-22T08:58:15Z</time>
   </trkpt>
   <trkpt lat="33.042332" lon="35.168937">
    <ele>84.687</ele>
    <time>2012-06-22T08:58:33Z</time>
   </trkpt>
   <trkpt lat="33.042845" lon="35.168033">
    <ele>85.506</ele>
    <time>2012-06-22T08:58:56Z</time>
   </trkpt>
   <trkpt lat="33.043351" lon="35.167111">
    <ele>83.151</ele>
    <time>2012-06-22T08:59:27Z</time>
   </trkpt>
   <trkpt lat="33.043851" lon="35.166191">
    <ele>82.376</ele>
    <time>2012-06-22T08:59:51Z</time>
   </trkpt>
   <trkpt lat="33.044500" lon="35.165423">
    <ele>79.666</ele>
    <time>2012-06-22T09:00:13Z</time>
   </trkpt>
   <trkpt lat="33.044371" lon="35.164355">
    <ele>78.660</ele>
    <time>2012-06-22T09:00:32Z</time>
   </trkpt>
   <trkpt lat="33.044572" lon="35.163240">
    <ele>76.504</ele>
    <time>2012-06-22T09:00:48Z</time>
   </trkpt>
   <trkpt lat="33.044648" lon="35.162116">
    <ele>73.567</ele>
    <time>2012-06-22T09:01:02Z</time>
   </trkpt>
   <trkpt lat="33.044526" lon="35.160988">
    <ele>72.662</ele>
    <time>2012-06-22T09:01:16Z</time>
   </trkpt>
   <trkpt lat="33.044180" lon="35.159953">
    <ele>71.123</ele>
    <time>2012-06-22T09:01:29Z</time>
   </trkpt>
   <trkpt lat="33.043828" lon="35.158947">
    <ele>72.171</ele>
    <time>2012-06-22T09:01:42Z</time>
   </trkpt>
   <trkpt lat="33.043686" lon="35.157850">
    <ele>71.537</ele>
    <time>2012-06-22T09:01:56Z</time>
   </trkpt>
   <trkpt lat="33.044103" lon="35.156847">
    <ele>72.051</ele>
    <time>2012-06-22T09:02:10Z</time>
   </trkpt>
   <trkpt lat="33.044521" lon="35.155881">
    <ele>70.021</ele>
    <time>2012-06-22T09:02:23Z</time>
   </trkpt>
   <trkpt lat="33.044843" lon="35.154816">
    <ele>68.402</ele>
    <time>2012-06-22T09:02:36Z</time>
   </trkpt>
   <trkpt lat="33.044554" lon="35.153795">
    <ele>65.503</ele>
    <time>2012-06-22T09:02:49Z</time>
   </trkpt>
   <trkpt lat="33.044041" lon="35.152819">
    <ele>63.940</ele>
    <time>2012-06-22T09:03:02Z</time>
   </trkpt>
   <trkpt lat="33.043531" lon="35.151864">
    <ele>62.583</ele>
    <time>2012-06-22T09:03:15Z</time>
   </trkpt>
   <trkpt lat="33.043064" lon="35.150966">
    <ele>63.156</ele>
    <time>2012-06-22T09:03:34Z</time>
   </trkpt>
   <trkpt lat="33.042594" lon="35.150034">
    <ele>59.845</ele>
    <time>2012-06-22T09:03:58Z</time>
   </trkpt>
   <trkpt lat="33.042147" lon="35.149071">
    <ele>56.165</ele>
    <time>2012-06-22T09:04:15Z</time>
   </trkpt>
   <trkpt lat="33.042177" lon="35.148056">
    <ele>56.522</ele>
    <time>2012-06-22T09:04:36Z</time>
   </trkpt>
   <trkpt lat="33.041448" lon="35.147476">
    <ele>55.263</ele>
    <time>2012-06-22T09:05:00Z</time>
   </trkpt>
   <trkpt lat="33.040625" lon="35.147037">
    <ele>54.274</ele>
    <time>2012-06-22T09:05:22Z</time>
   </trkpt>
   <trkpt lat="33.039729" lon="35.146731">
    <ele>50.793</ele>
    <time>2012-06-22T09:05:39Z</time>
   </trkpt>
   <trkpt lat="33.038848" lon="35.146433">
    <ele>50.392</ele>
    <time>2012-06-22T09:05:56Z</time>
   </trkpt>
   <trkpt lat="33.037948" lon="35.146200">
    <ele>51.405</ele>
    <time>2012-06-22T09:06:15Z</time>
   </trkpt>
   <trkpt lat="33.037081" lon="35.145847">
    <ele>50.956</ele>
    <time>2012-06-22T09:06:36Z</time>
   </trkpt>
   <trkpt lat="33.036158" lon="35.145532">
    <ele>48.433</ele>
    <time>2012-06-22T09:06:53Z</time>
   </trkpt>
   <trkpt lat="33.035270" lon="35.145190">
    <ele>48.555</ele>
    <time>2012-06-22T09:07:08Z</time>
   </trkpt>
   <trkpt lat="33.034404" lon="35.144817">
    <ele>49.447</ele>
    <time>2012-06-22T09:07:27Z</time>
   </trkpt>
   <trkpt lat="33.033612" lon="35.144550">
    <ele>51.779</ele>
    <time>2012-06-22T09:08:18Z</time>
   </trkpt>
   <trkpt lat="33.032760" lon="35.144347">
    <ele>54.895</ele>
    <time>2012-06-22T09:08:55Z</time>
   </trkpt>
   <trkpt lat="33.031801" lon="35.144131">
    <ele>53.816</ele>
    <time>2012-06-22T09:09:13Z</time>
   </trkpt>
   <trkpt lat="33.030847" lon="35.144015">
    <ele>54.016</ele>
    <time>2012-06-22T09:09:28Z</time>
   </trkpt>
   <trkpt lat="33.029907" lon="35.143895">
    <ele>52.339</ele>
    <time>2012-06-22T09:09:42Z</time>
   </trkpt>
   <trkpt lat="33.028986" lon="35.143771">
    <ele>52.628</ele>
    <time>2012-06-22T09:09:56Z</time>
   </trkpt>
   <trkpt lat="33.028018" lon="35.143644">
    <ele>50.454</ele>
    <time>2012-06-22T09:10:10Z</time>
   </trkpt>
   <trkpt lat="33.027103" lon="35.143483">
    <ele>48.489</ele>
    <time>2012-06-22T09:10:22Z</time>
   </trkpt>
   <trkpt lat="33.026209" lon="35.143292">
    <ele>47.506</ele>
    <time>2012-06-22T09:10:33Z</time>
   </trkpt>
   <trkpt lat="33.025297" lon="35.143099">
    <ele>48.842</ele>
    <time>2012-06-22T09:10:45Z</time>
   </trkpt>
   <trkpt lat="33.024364" lon="35.142903">
    <ele>51.520</ele>
    <time>2012-06-22T09:10:58Z</time>
   </trkpt>
   <trkpt lat="33.023437" lon="35.142704">
    <ele>55.368</ele>
    <time>2012-06-22T09:11:14Z</time>
   </trkpt>
   <trkpt lat="33.022518" lon="35.142510">
    <ele>55.698</ele>
    <time>2012-06-22T09:11:32Z</time>
   </trkpt>
   <trkpt lat="33.021619" lon="35.142324">
    <ele>57.022</ele>
    <time>2012-06-22T09:11:49Z</time>
   </trkpt>
   <trkpt lat="33.020710" lon="35.142122">
    <ele>59.069</ele>
    <time>2012-06-22T09:12:05Z</time>
   </trkpt>
   <trkpt lat="33.019805" lon="35.141926">
    <ele>59.770</ele>
    <time>2012-06-22T09:12:21Z</time>
   </trkpt>
   <trkpt lat="33.018885" lon="35.141866">
    <ele>60.728</ele>
    <time>2012-06-22T09:12:37Z</time>
   </trkpt>
   <trkpt lat="33.018056" lon="35.142273">
    <ele>59.835</ele>
    <time>2012-06-22T09:13:04Z</time>
   </trkpt>
   <trkpt lat="33.017872" lon="35.142477">
    <ele>58.977</ele>
    <time>2012-06-22T09:13:35Z</time>
   </trkpt>
  </trkseg>
 </trk>
</gpx>
